sensor_id;sensor_type;location;lat;lon;timestamp;temperature;humidity
52787;DHT22;38661;53.152;5.846;2023-04-22T00:01:16;11.10;91.40
52787;DHT22;38661;53.152;5.846;2023-04-22T00:03:42;11.10;91.10
52787;DHT22;38661;53.152;5.846;2023-04-22T00:06:09;11.10;91.00
52787;DHT22;38661;53.152;5.846;2023-04-22T00:08:35;11.20;91.00
52787;DHT22;38661;53.152;5.846;2023-04-22T00:11:01;11.10;90.60
52787;DHT22;38661;53.152;5.846;2023-04-22T00:13:27;11.10;90.60
52787;DHT22;38661;53.152;5.846;2023-04-22T00:15:53;11.10;90.50
52787;DHT22;38661;53.152;5.846;2023-04-22T00:18:19;11.10;90.40
52787;DHT22;38661;53.152;5.846;2023-04-22T00:20:45;11.00;90.40
52787;DHT22;38661;53.152;5.846;2023-04-22T00:23:11;11.00;90.40
52787;DHT22;38661;53.152;5.846;2023-04-22T00:25:38;11.00;90.30
52787;DHT22;38661;53.152;5.846;2023-04-22T00:28:05;11.00;90.50
52787;DHT22;38661;53.152;5.846;2023-04-22T00:30:30;10.90;90.60
52787;DHT22;38661;53.152;5.846;2023-04-22T00:32:56;10.90;90.70
52787;DHT22;38661;53.152;5.846;2023-04-22T00:35:22;10.90;90.80
52787;DHT22;38661;53.152;5.846;2023-04-22T00:37:47;10.80;90.60
52787;DHT22;38661;53.152;5.846;2023-04-22T00:40:13;10.70;90.60
52787;DHT22;38661;53.152;5.846;2023-04-22T00:42:41;10.70;90.80
52787;DHT22;38661;53.152;5.846;2023-04-22T00:45:11;10.60;90.80
52787;DHT22;38661;53.152;5.846;2023-04-22T00:47:40;10.60;90.70
52787;DHT22;38661;53.152;5.846;2023-04-22T00:50:07;10.50;90.70
52787;DHT22;38661;53.152;5.846;2023-04-22T00:52:32;10.50;90.70
52787;DHT22;38661;53.152;5.846;2023-04-22T00:54:59;10.40;90.70
52787;DHT22;38661;53.152;5.846;2023-04-22T00:57:25;10.30;90.70
52787;DHT22;38661;53.152;5.846;2023-04-22T00:59:51;10.30;90.80
52787;DHT22;38661;53.152;5.846;2023-04-22T01:02:18;10.30;90.80
52787;DHT22;38661;53.152;5.846;2023-04-22T01:04:43;10.20;90.60
52787;DHT22;38661;53.152;5.846;2023-04-22T01:07:10;10.10;90.50
52787;DHT22;38661;53.152;5.846;2023-04-22T01:09:36;10.00;90.50
52787;DHT22;38661;53.152;5.846;2023-04-22T01:12:02;9.90;90.60
52787;DHT22;38661;53.152;5.846;2023-04-22T01:14:28;9.80;90.80
52787;DHT22;38661;53.152;5.846;2023-04-22T01:16:54;9.80;90.70
52787;DHT22;38661;53.152;5.846;2023-04-22T01:19:20;9.80;91.20
52787;DHT22;38661;53.152;5.846;2023-04-22T01:21:46;9.70;91.30
52787;DHT22;38661;53.152;5.846;2023-04-22T01:24:13;9.70;91.20
52787;DHT22;38661;53.152;5.846;2023-04-22T01:26:39;9.60;91.30
52787;DHT22;38661;53.152;5.846;2023-04-22T01:29:05;9.60;91.30
52787;DHT22;38661;53.152;5.846;2023-04-22T01:31:31;9.60;91.20
52787;DHT22;38661;53.152;5.846;2023-04-22T01:33:58;9.50;91.30
52787;DHT22;38661;53.152;5.846;2023-04-22T01:36:24;9.50;91.20
52787;DHT22;38661;53.152;5.846;2023-04-22T01:38:50;9.50;91.20
52787;DHT22;38661;53.152;5.846;2023-04-22T01:41:16;9.50;91.20
52787;DHT22;38661;53.152;5.846;2023-04-22T01:43:43;9.50;91.20
52787;DHT22;38661;53.152;5.846;2023-04-22T01:46:09;9.40;91.20
52787;DHT22;38661;53.152;5.846;2023-04-22T01:48:35;9.40;91.20
52787;DHT22;38661;53.152;5.846;2023-04-22T01:51:01;9.40;91.30
52787;DHT22;38661;53.152;5.846;2023-04-22T01:53:27;9.30;91.30
52787;DHT22;38661;53.152;5.846;2023-04-22T01:55:53;9.40;91.30
52787;DHT22;38661;53.152;5.846;2023-04-22T01:58:19;9.30;91.30
52787;DHT22;38661;53.152;5.846;2023-04-22T02:00:45;9.30;91.20
52787;DHT22;38661;53.152;5.846;2023-04-22T02:03:12;9.30;91.30
52787;DHT22;38661;53.152;5.846;2023-04-22T02:05:38;9.20;91.30
52787;DHT22;38661;53.152;5.846;2023-04-22T02:08:04;9.20;91.20
52787;DHT22;38661;53.152;5.846;2023-04-22T02:10:31;9.10;91.20
52787;DHT22;38661;53.152;5.846;2023-04-22T02:12:58;9.10;91.30
52787;DHT22;38661;53.152;5.846;2023-04-22T02:15:24;9.10;91.30
52787;DHT22;38661;53.152;5.846;2023-04-22T02:17:49;9.10;91.80
52787;DHT22;38661;53.152;5.846;2023-04-22T02:20:15;9.00;91.90
52787;DHT22;38661;53.152;5.846;2023-04-22T02:22:41;9.10;91.80
52787;DHT22;38661;53.152;5.846;2023-04-22T02:25:08;9.00;91.70
52787;DHT22;38661;53.152;5.846;2023-04-22T02:27:35;9.00;91.60
52787;DHT22;38661;53.152;5.846;2023-04-22T02:30:01;9.00;91.60
52787;DHT22;38661;53.152;5.846;2023-04-22T02:32:28;9.00;91.80
52787;DHT22;38661;53.152;5.846;2023-04-22T02:34:54;9.00;91.90
52787;DHT22;38661;53.152;5.846;2023-04-22T02:37:20;9.00;92.50
52787;DHT22;38661;53.152;5.846;2023-04-22T02:39:47;9.00;92.30
52787;DHT22;38661;53.152;5.846;2023-04-22T02:42:13;9.00;92.30
52787;DHT22;38661;53.152;5.846;2023-04-22T02:44:40;9.00;92.20
52787;DHT22;38661;53.152;5.846;2023-04-22T02:47:06;8.90;92.30
52787;DHT22;38661;53.152;5.846;2023-04-22T02:49:32;8.90;92.20
52787;DHT22;38661;53.152;5.846;2023-04-22T02:51:57;8.80;92.10
52787;DHT22;38661;53.152;5.846;2023-04-22T02:54:23;8.80;92.00
52787;DHT22;38661;53.152;5.846;2023-04-22T02:56:49;8.80;92.10
52787;DHT22;38661;53.152;5.846;2023-04-22T02:59:15;8.70;92.20
52787;DHT22;38661;53.152;5.846;2023-04-22T03:01:41;8.70;92.20
52787;DHT22;38661;53.152;5.846;2023-04-22T03:04:06;8.60;92.20
52787;DHT22;38661;53.152;5.846;2023-04-22T03:06:32;8.70;92.30
52787;DHT22;38661;53.152;5.846;2023-04-22T03:08:58;8.60;92.30
52787;DHT22;38661;53.152;5.846;2023-04-22T03:11:23;8.60;92.30
52787;DHT22;38661;53.152;5.846;2023-04-22T03:13:50;8.60;92.20
52787;DHT22;38661;53.152;5.846;2023-04-22T03:16:16;8.50;92.00
52787;DHT22;38661;53.152;5.846;2023-04-22T03:18:42;8.50;92.00
52787;DHT22;38661;53.152;5.846;2023-04-22T03:21:07;8.40;92.00
52787;DHT22;38661;53.152;5.846;2023-04-22T03:23:33;8.40;92.10
52787;DHT22;38661;53.152;5.846;2023-04-22T03:26:00;8.30;92.10
52787;DHT22;38661;53.152;5.846;2023-04-22T03:28:25;8.40;92.20
52787;DHT22;38661;53.152;5.846;2023-04-22T03:30:51;8.40;92.20
52787;DHT22;38661;53.152;5.846;2023-04-22T03:33:17;8.30;92.10
52787;DHT22;38661;53.152;5.846;2023-04-22T03:35:42;8.30;92.20
52787;DHT22;38661;53.152;5.846;2023-04-22T03:38:08;8.30;92.30
52787;DHT22;38661;53.152;5.846;2023-04-22T03:40:34;8.30;92.40
52787;DHT22;38661;53.152;5.846;2023-04-22T03:43:00;8.40;92.30
52787;DHT22;38661;53.152;5.846;2023-04-22T03:45:25;8.40;92.40
52787;DHT22;38661;53.152;5.846;2023-04-22T03:47:51;8.40;92.40
52787;DHT22;38661;53.152;5.846;2023-04-22T03:50:17;8.40;92.40
52787;DHT22;38661;53.152;5.846;2023-04-22T03:52:42;8.40;92.40
52787;DHT22;38661;53.152;5.846;2023-04-22T03:55:08;8.40;92.30
52787;DHT22;38661;53.152;5.846;2023-04-22T03:57:34;8.40;92.20
52787;DHT22;38661;53.152;5.846;2023-04-22T04:00:00;8.40;92.10
52787;DHT22;38661;53.152;5.846;2023-04-22T04:02:26;8.40;91.90
52787;DHT22;38661;53.152;5.846;2023-04-22T04:04:51;8.30;92.10
52787;DHT22;38661;53.152;5.846;2023-04-22T04:07:17;8.20;92.30
52787;DHT22;38661;53.152;5.846;2023-04-22T04:09:43;8.30;92.30
52787;DHT22;38661;53.152;5.846;2023-04-22T04:12:09;8.20;92.20
52787;DHT22;38661;53.152;5.846;2023-04-22T04:14:35;8.20;92.00
52787;DHT22;38661;53.152;5.846;2023-04-22T04:17:00;8.20;92.00
52787;DHT22;38661;53.152;5.846;2023-04-22T04:19:28;8.10;92.10
52787;DHT22;38661;53.152;5.846;2023-04-22T04:21:53;8.10;92.10
52787;DHT22;38661;53.152;5.846;2023-04-22T04:24:20;8.10;91.80
52787;DHT22;38661;53.152;5.846;2023-04-22T04:26:46;8.00;91.90
52787;DHT22;38661;53.152;5.846;2023-04-22T04:29:13;8.00;92.10
52787;DHT22;38661;53.152;5.846;2023-04-22T04:31:39;7.90;92.00
52787;DHT22;38661;53.152;5.846;2023-04-22T04:34:05;7.90;92.00
52787;DHT22;38661;53.152;5.846;2023-04-22T04:36:32;7.80;92.00
52787;DHT22;38661;53.152;5.846;2023-04-22T04:38:57;7.70;92.00
52787;DHT22;38661;53.152;5.846;2023-04-22T04:41:23;7.60;92.00
52787;DHT22;38661;53.152;5.846;2023-04-22T04:43:51;7.60;92.00
52787;DHT22;38661;53.152;5.846;2023-04-22T04:46:17;7.70;92.10
52787;DHT22;38661;53.152;5.846;2023-04-22T04:48:44;7.70;92.10
52787;DHT22;38661;53.152;5.846;2023-04-22T04:51:11;7.70;92.20
52787;DHT22;38661;53.152;5.846;2023-04-22T04:53:37;7.70;92.80
52787;DHT22;38661;53.152;5.846;2023-04-22T04:56:02;7.70;92.90
52787;DHT22;38661;53.152;5.846;2023-04-22T04:58:28;7.80;93.50
52787;DHT22;38661;53.152;5.846;2023-04-22T05:00:54;7.80;93.90
52787;DHT22;38661;53.152;5.846;2023-04-22T05:03:20;7.80;94.10
52787;DHT22;38661;53.152;5.846;2023-04-22T05:05:45;7.70;94.10
52787;DHT22;38661;53.152;5.846;2023-04-22T05:08:13;7.70;94.20
52787;DHT22;38661;53.152;5.846;2023-04-22T05:10:39;7.70;94.20
52787;DHT22;38661;53.152;5.846;2023-04-22T05:13:05;7.70;94.10
52787;DHT22;38661;53.152;5.846;2023-04-22T05:15:30;7.70;94.20
52787;DHT22;38661;53.152;5.846;2023-04-22T05:17:56;7.70;94.30
52787;DHT22;38661;53.152;5.846;2023-04-22T05:20:22;7.70;94.30
52787;DHT22;38661;53.152;5.846;2023-04-22T05:22:47;7.70;94.60
52787;DHT22;38661;53.152;5.846;2023-04-22T05:25:13;7.70;94.70
52787;DHT22;38661;53.152;5.846;2023-04-22T05:27:39;7.70;94.60
52787;DHT22;38661;53.152;5.846;2023-04-22T05:30:06;7.70;94.70
52787;DHT22;38661;53.152;5.846;2023-04-22T05:32:32;7.70;94.30
52787;DHT22;38661;53.152;5.846;2023-04-22T05:34:58;7.70;94.30
52787;DHT22;38661;53.152;5.846;2023-04-22T05:37:23;7.80;94.40
52787;DHT22;38661;53.152;5.846;2023-04-22T05:39:49;7.80;94.10
52787;DHT22;38661;53.152;5.846;2023-04-22T05:42:15;7.80;94.10
52787;DHT22;38661;53.152;5.846;2023-04-22T05:44:41;7.90;94.40
52787;DHT22;38661;53.152;5.846;2023-04-22T05:47:07;8.00;94.40
52787;DHT22;38661;53.152;5.846;2023-04-22T05:49:32;8.00;94.50
52787;DHT22;38661;53.152;5.846;2023-04-22T05:51:58;8.10;94.60
52787;DHT22;38661;53.152;5.846;2023-04-22T05:54:24;8.10;94.80
52787;DHT22;38661;53.152;5.846;2023-04-22T05:56:50;8.10;94.80
52787;DHT22;38661;53.152;5.846;2023-04-22T05:59:15;8.20;95.00
52787;DHT22;38661;53.152;5.846;2023-04-22T06:01:41;8.20;95.20
52787;DHT22;38661;53.152;5.846;2023-04-22T06:04:07;8.30;95.40
52787;DHT22;38661;53.152;5.846;2023-04-22T06:06:34;8.40;95.20
52787;DHT22;38661;53.152;5.846;2023-04-22T06:09:00;8.50;95.00
52787;DHT22;38661;53.152;5.846;2023-04-22T06:11:26;8.50;95.20
52787;DHT22;38661;53.152;5.846;2023-04-22T06:13:52;8.60;95.20
52787;DHT22;38661;53.152;5.846;2023-04-22T06:16:18;8.60;95.00
52787;DHT22;38661;53.152;5.846;2023-04-22T06:18:44;8.80;95.80
52787;DHT22;38661;53.152;5.846;2023-04-22T06:21:10;8.80;95.60
52787;DHT22;38661;53.152;5.846;2023-04-22T06:23:36;8.90;95.80
52787;DHT22;38661;53.152;5.846;2023-04-22T06:26:02;9.00;95.60
52787;DHT22;38661;53.152;5.846;2023-04-22T06:28:28;9.00;95.60
52787;DHT22;38661;53.152;5.846;2023-04-22T06:30:53;9.00;96.00
52787;DHT22;38661;53.152;5.846;2023-04-22T06:33:19;9.00;96.20
52787;DHT22;38661;53.152;5.846;2023-04-22T06:35:45;9.10;96.30
52787;DHT22;38661;53.152;5.846;2023-04-22T06:38:11;9.10;96.20
52787;DHT22;38661;53.152;5.846;2023-04-22T06:40:36;9.20;95.90
52787;DHT22;38661;53.152;5.846;2023-04-22T06:43:02;9.10;96.00
52787;DHT22;38661;53.152;5.846;2023-04-22T06:45:28;9.20;96.10
52787;DHT22;38661;53.152;5.846;2023-04-22T06:47:54;9.20;95.90
52787;DHT22;38661;53.152;5.846;2023-04-22T06:50:20;9.20;95.80
52787;DHT22;38661;53.152;5.846;2023-04-22T06:52:45;9.30;96.00
52787;DHT22;38661;53.152;5.846;2023-04-22T06:55:11;9.30;95.90
52787;DHT22;38661;53.152;5.846;2023-04-22T06:57:37;9.40;96.00
52787;DHT22;38661;53.152;5.846;2023-04-22T07:00:07;9.50;95.80
52787;DHT22;38661;53.152;5.846;2023-04-22T07:02:36;9.60;96.00
52787;DHT22;38661;53.152;5.846;2023-04-22T07:05:01;9.60;95.90
52787;DHT22;38661;53.152;5.846;2023-04-22T07:07:27;9.70;95.70
52787;DHT22;38661;53.152;5.846;2023-04-22T07:09:53;9.70;95.60
52787;DHT22;38661;53.152;5.846;2023-04-22T07:12:18;9.80;95.40
52787;DHT22;38661;53.152;5.846;2023-04-22T07:14:44;9.80;95.40
52787;DHT22;38661;53.152;5.846;2023-04-22T07:17:11;10.00;95.40
52787;DHT22;38661;53.152;5.846;2023-04-22T07:19:37;10.00;95.40
52787;DHT22;38661;53.152;5.846;2023-04-22T07:22:03;10.10;95.20
52787;DHT22;38661;53.152;5.846;2023-04-22T07:24:29;10.10;94.90
52787;DHT22;38661;53.152;5.846;2023-04-22T07:26:56;10.20;94.80
52787;DHT22;38661;53.152;5.846;2023-04-22T07:29:21;10.30;94.70
52787;DHT22;38661;53.152;5.846;2023-04-22T07:31:47;10.30;94.40
52787;DHT22;38661;53.152;5.846;2023-04-22T07:34:13;10.30;94.50
52787;DHT22;38661;53.152;5.846;2023-04-22T07:36:39;10.50;94.20
52787;DHT22;38661;53.152;5.846;2023-04-22T07:39:05;10.50;94.10
52787;DHT22;38661;53.152;5.846;2023-04-22T07:41:31;10.60;94.10
52787;DHT22;38661;53.152;5.846;2023-04-22T07:43:56;10.60;94.00
52787;DHT22;38661;53.152;5.846;2023-04-22T07:46:22;10.70;93.80
52787;DHT22;38661;53.152;5.846;2023-04-22T07:48:48;10.80;93.80
52787;DHT22;38661;53.152;5.846;2023-04-22T07:51:14;10.80;93.70
52787;DHT22;38661;53.152;5.846;2023-04-22T07:53:39;10.80;93.60
52787;DHT22;38661;53.152;5.846;2023-04-22T07:56:05;11.00;93.60
52787;DHT22;38661;53.152;5.846;2023-04-22T07:58:31;11.00;93.10
52787;DHT22;38661;53.152;5.846;2023-04-22T08:00:56;11.00;93.30
52787;DHT22;38661;53.152;5.846;2023-04-22T08:03:22;11.10;93.30
52787;DHT22;38661;53.152;5.846;2023-04-22T08:05:48;11.30;93.30
52787;DHT22;38661;53.152;5.846;2023-04-22T08:08:14;11.40;93.10
52787;DHT22;38661;53.152;5.846;2023-04-22T08:10:40;11.50;93.10
52787;DHT22;38661;53.152;5.846;2023-04-22T08:13:05;11.60;92.80
52787;DHT22;38661;53.152;5.846;2023-04-22T08:15:31;11.70;92.50
52787;DHT22;38661;53.152;5.846;2023-04-22T08:17:57;11.70;91.80
52787;DHT22;38661;53.152;5.846;2023-04-22T08:20:23;11.90;92.10
52787;DHT22;38661;53.152;5.846;2023-04-22T08:22:50;12.00;92.10
52787;DHT22;38661;53.152;5.846;2023-04-22T08:25:17;12.10;91.70
52787;DHT22;38661;53.152;5.846;2023-04-22T08:27:42;12.20;91.70
52787;DHT22;38661;53.152;5.846;2023-04-22T08:30:08;12.20;91.40
52787;DHT22;38661;53.152;5.846;2023-04-22T08:32:34;12.40;91.40
52787;DHT22;38661;53.152;5.846;2023-04-22T08:35:00;12.50;91.20
52787;DHT22;38661;53.152;5.846;2023-04-22T08:37:26;12.50;90.50
52787;DHT22;38661;53.152;5.846;2023-04-22T08:39:52;12.50;90.40
52787;DHT22;38661;53.152;5.846;2023-04-22T08:42:19;12.60;90.60
52787;DHT22;38661;53.152;5.846;2023-04-22T08:44:46;12.80;90.60
52787;DHT22;38661;53.152;5.846;2023-04-22T08:47:13;12.90;89.90
52787;DHT22;38661;53.152;5.846;2023-04-22T08:49:41;13.00;89.60
52787;DHT22;38661;53.152;5.846;2023-04-22T08:52:07;13.20;89.50
52787;DHT22;38661;53.152;5.846;2023-04-22T08:54:34;13.40;89.00
52787;DHT22;38661;53.152;5.846;2023-04-22T08:57:02;13.50;88.90
52787;DHT22;38661;53.152;5.846;2023-04-22T08:59:29;13.60;88.80
52787;DHT22;38661;53.152;5.846;2023-04-22T09:01:56;13.70;88.40
52787;DHT22;38661;53.152;5.846;2023-04-22T09:04:23;13.90;87.60
52787;DHT22;38661;53.152;5.846;2023-04-22T09:06:49;14.00;86.90
52787;DHT22;38661;53.152;5.846;2023-04-22T09:09:15;14.20;87.40
52787;DHT22;38661;53.152;5.846;2023-04-22T09:11:41;14.10;84.70
52787;DHT22;38661;53.152;5.846;2023-04-22T09:14:07;14.20;85.90
52787;DHT22;38661;53.152;5.846;2023-04-22T09:16:39;14.40;86.50
52787;DHT22;38661;53.152;5.846;2023-04-22T09:19:10;14.50;85.90
52787;DHT22;38661;53.152;5.846;2023-04-22T09:21:36;14.50;85.60
52787;DHT22;38661;53.152;5.846;2023-04-22T09:24:07;14.50;85.30
52787;DHT22;38661;53.152;5.846;2023-04-22T09:26:32;14.50;84.70
52787;DHT22;38661;53.152;5.846;2023-04-22T09:28:59;14.50;85.10
52787;DHT22;38661;53.152;5.846;2023-04-22T09:31:26;14.50;84.00
52787;DHT22;38661;53.152;5.846;2023-04-22T09:33:59;14.60;83.80
52787;DHT22;38661;53.152;5.846;2023-04-22T09:36:26;14.70;84.20
52787;DHT22;38661;53.152;5.846;2023-04-22T09:38:54;14.70;83.30
52787;DHT22;38661;53.152;5.846;2023-04-22T09:41:31;14.90;82.20
52787;DHT22;38661;53.152;5.846;2023-04-22T09:43:58;15.10;82.70
52787;DHT22;38661;53.152;5.846;2023-04-22T09:46:25;15.20;82.10
52787;DHT22;38661;53.152;5.846;2023-04-22T09:48:56;15.20;81.00
52787;DHT22;38661;53.152;5.846;2023-04-22T09:51:23;15.30;81.60
52787;DHT22;38661;53.152;5.846;2023-04-22T09:54:00;15.50;81.60
52787;DHT22;38661;53.152;5.846;2023-04-22T09:56:51;15.50;79.40
52787;DHT22;38661;53.152;5.846;2023-04-22T09:59:21;15.60;80.90
52787;DHT22;38661;53.152;5.846;2023-04-22T10:01:48;15.70;80.40
52787;DHT22;38661;53.152;5.846;2023-04-22T10:04:14;15.90;81.10
52787;DHT22;38661;53.152;5.846;2023-04-22T10:06:41;15.90;78.90
52787;DHT22;38661;53.152;5.846;2023-04-22T10:09:07;16.00;79.10
52787;DHT22;38661;53.152;5.846;2023-04-22T10:11:34;16.00;78.00
52787;DHT22;38661;53.152;5.846;2023-04-22T10:13:59;16.00;79.10
52787;DHT22;38661;53.152;5.846;2023-04-22T10:16:26;16.10;78.90
52787;DHT22;38661;53.152;5.846;2023-04-22T10:18:53;16.20;78.20
52787;DHT22;38661;53.152;5.846;2023-04-22T10:21:23;16.40;79.50
52787;DHT22;38661;53.152;5.846;2023-04-22T10:23:49;16.30;77.90
52787;DHT22;38661;53.152;5.846;2023-04-22T10:26:37;16.40;78.10
52787;DHT22;38661;53.152;5.846;2023-04-22T10:29:05;16.50;77.30
52787;DHT22;38661;53.152;5.846;2023-04-22T10:31:32;16.50;76.10
52787;DHT22;38661;53.152;5.846;2023-04-22T10:34:14;16.70;77.60
52787;DHT22;38661;53.152;5.846;2023-04-22T10:37:10;16.70;74.20
52787;DHT22;38661;53.152;5.846;2023-04-22T10:39:38;16.80;75.30
52787;DHT22;38661;53.152;5.846;2023-04-22T10:42:10;16.80;75.90
52787;DHT22;38661;53.152;5.846;2023-04-22T10:44:50;16.70;76.00
52787;DHT22;38661;53.152;5.846;2023-04-22T10:47:33;16.70;76.10
52787;DHT22;38661;53.152;5.846;2023-04-22T10:56:16;17.40;76.70
52787;DHT22;38661;53.152;5.846;2023-04-22T10:58:42;17.60;74.20
52787;DHT22;38661;53.152;5.846;2023-04-22T11:01:13;17.90;75.10
52787;DHT22;38661;53.152;5.846;2023-04-22T11:03:39;17.90;73.60
52787;DHT22;38661;53.152;5.846;2023-04-22T11:06:16;17.90;73.40
52787;DHT22;38661;53.152;5.846;2023-04-22T11:08:47;17.90;72.80
52787;DHT22;38661;53.152;5.846;2023-04-22T11:11:13;18.00;74.00
52787;DHT22;38661;53.152;5.846;2023-04-22T11:13:41;18.10;74.70
52787;DHT22;38661;53.152;5.846;2023-04-22T11:16:10;18.40;74.90
52787;DHT22;38661;53.152;5.846;2023-04-22T11:18:36;18.50;71.90
52787;DHT22;38661;53.152;5.846;2023-04-22T11:21:04;18.60;73.60
52787;DHT22;38661;53.152;5.846;2023-04-22T11:23:31;18.60;71.20
52787;DHT22;38661;53.152;5.846;2023-04-22T11:25:59;18.90;72.60
52787;DHT22;38661;53.152;5.846;2023-04-22T11:28:25;19.00;73.00
52787;DHT22;38661;53.152;5.846;2023-04-22T11:30:51;19.00;73.10
52787;DHT22;38661;53.152;5.846;2023-04-22T11:33:18;18.90;71.30
52787;DHT22;38661;53.152;5.846;2023-04-22T11:35:43;18.80;72.10
52787;DHT22;38661;53.152;5.846;2023-04-22T11:38:09;18.90;72.40
52787;DHT22;38661;53.152;5.846;2023-04-22T11:40:37;18.80;71.50
52787;DHT22;38661;53.152;5.846;2023-04-22T11:43:06;18.80;71.20
52787;DHT22;38661;53.152;5.846;2023-04-22T11:45:35;18.90;69.40
52787;DHT22;38661;53.152;5.846;2023-04-22T11:48:02;19.00;71.40
52787;DHT22;38661;53.152;5.846;2023-04-22T11:50:30;19.20;70.70
52787;DHT22;38661;53.152;5.846;2023-04-22T11:55:32;19.40;71.40
52787;DHT22;38661;53.152;5.846;2023-04-22T12:00:57;19.30;70.50
52787;DHT22;38661;53.152;5.846;2023-04-22T12:03:23;19.30;70.40
52787;DHT22;38661;53.152;5.846;2023-04-22T12:08:24;19.10;69.60
52787;DHT22;38661;53.152;5.846;2023-04-22T12:10:55;19.00;69.40
52787;DHT22;38661;53.152;5.846;2023-04-22T12:13:23;19.10;70.20
52787;DHT22;38661;53.152;5.846;2023-04-22T12:15:58;19.10;70.90
52787;DHT22;38661;53.152;5.846;2023-04-22T12:18:34;19.10;70.50
52787;DHT22;38661;53.152;5.846;2023-04-22T12:23:45;18.90;69.30
52787;DHT22;38661;53.152;5.846;2023-04-22T12:26:12;18.70;69.10
52787;DHT22;38661;53.152;5.846;2023-04-22T12:28:39;18.60;70.20
52787;DHT22;38661;53.152;5.846;2023-04-22T12:31:05;18.60;70.20
52787;DHT22;38661;53.152;5.846;2023-04-22T12:33:31;18.60;70.00
52787;DHT22;38661;53.152;5.846;2023-04-22T12:35:57;18.70;70.10
52787;DHT22;38661;53.152;5.846;2023-04-22T12:38:23;18.70;70.50
52787;DHT22;38661;53.152;5.846;2023-04-22T12:40:49;18.70;70.70
52787;DHT22;38661;53.152;5.846;2023-04-22T12:43:16;18.70;71.00
52787;DHT22;38661;53.152;5.846;2023-04-22T12:45:42;18.70;70.70
52787;DHT22;38661;53.152;5.846;2023-04-22T12:48:08;18.60;71.20
52787;DHT22;38661;53.152;5.846;2023-04-22T12:50:34;18.50;71.60
52787;DHT22;38661;53.152;5.846;2023-04-22T12:53:00;18.50;71.90
52787;DHT22;38661;53.152;5.846;2023-04-22T12:55:26;18.50;72.10
52787;DHT22;38661;53.152;5.846;2023-04-22T12:57:52;18.50;71.80
52787;DHT22;38661;53.152;5.846;2023-04-22T13:00:18;18.50;71.60
52787;DHT22;38661;53.152;5.846;2023-04-22T13:02:46;18.40;71.90
52787;DHT22;38661;53.152;5.846;2023-04-22T13:05:12;18.30;71.40
52787;DHT22;38661;53.152;5.846;2023-04-22T13:07:38;18.20;71.40
52787;DHT22;38661;53.152;5.846;2023-04-22T13:10:05;18.10;71.60
52787;DHT22;38661;53.152;5.846;2023-04-22T13:12:31;18.10;72.10
52787;DHT22;38661;53.152;5.846;2023-04-22T13:14:57;18.10;72.40
52787;DHT22;38661;53.152;5.846;2023-04-22T13:17:23;18.00;72.50
52787;DHT22;38661;53.152;5.846;2023-04-22T13:19:49;18.00;72.80
52787;DHT22;38661;53.152;5.846;2023-04-22T13:22:16;17.90;72.80
52787;DHT22;38661;53.152;5.846;2023-04-22T13:24:42;17.80;73.40
52787;DHT22;38661;53.152;5.846;2023-04-22T13:27:08;17.60;73.80
52787;DHT22;38661;53.152;5.846;2023-04-22T13:29:34;17.50;74.50
52787;DHT22;38661;53.152;5.846;2023-04-22T13:32:00;17.50;75.00
52787;DHT22;38661;53.152;5.846;2023-04-22T13:34:26;17.30;75.30
52787;DHT22;38661;53.152;5.846;2023-04-22T13:36:52;17.20;76.00
52787;DHT22;38661;53.152;5.846;2023-04-22T13:39:18;17.10;76.90
52787;DHT22;38661;53.152;5.846;2023-04-22T13:41:44;16.90;76.60
52787;DHT22;38661;53.152;5.846;2023-04-22T13:44:11;16.60;77.40
52787;DHT22;38661;53.152;5.846;2023-04-22T13:46:37;16.40;78.00
52787;DHT22;38661;53.152;5.846;2023-04-22T13:49:04;16.20;79.20
52787;DHT22;38661;53.152;5.846;2023-04-22T13:51:30;16.00;80.00
52787;DHT22;38661;53.152;5.846;2023-04-22T13:53:59;15.70;80.70
52787;DHT22;38661;53.152;5.846;2023-04-22T13:56:25;15.50;81.60
52787;DHT22;38661;53.152;5.846;2023-04-22T13:58:51;15.40;82.60
52787;DHT22;38661;53.152;5.846;2023-04-22T14:01:17;15.20;83.40
52787;DHT22;38661;53.152;5.846;2023-04-22T14:03:43;15.00;83.60
52787;DHT22;38661;53.152;5.846;2023-04-22T14:06:09;14.80;84.10
52787;DHT22;38661;53.152;5.846;2023-04-22T14:08:36;14.70;85.50
52787;DHT22;38661;53.152;5.846;2023-04-22T14:11:02;14.60;85.20
52787;DHT22;38661;53.152;5.846;2023-04-22T14:13:29;14.50;85.70
52787;DHT22;38661;53.152;5.846;2023-04-22T14:15:54;14.40;86.20
52787;DHT22;38661;53.152;5.846;2023-04-22T14:18:20;14.30;86.00
52787;DHT22;38661;53.152;5.846;2023-04-22T14:20:49;14.20;86.70
52787;DHT22;38661;53.152;5.846;2023-04-22T14:23:15;14.20;87.10
52787;DHT22;38661;53.152;5.846;2023-04-22T14:25:43;14.00;86.80
52787;DHT22;38661;53.152;5.846;2023-04-22T14:28:09;14.00;87.30
52787;DHT22;38661;53.152;5.846;2023-04-22T14:30:34;14.00;87.30
52787;DHT22;38661;53.152;5.846;2023-04-22T14:33:01;13.90;87.40
52787;DHT22;38661;53.152;5.846;2023-04-22T14:35:34;13.90;87.50
52787;DHT22;38661;53.152;5.846;2023-04-22T14:38:01;13.80;87.60
52787;DHT22;38661;53.152;5.846;2023-04-22T14:40:28;13.70;87.60
52787;DHT22;38661;53.152;5.846;2023-04-22T14:42:56;13.80;87.90
52787;DHT22;38661;53.152;5.846;2023-04-22T14:45:22;13.70;87.90
52787;DHT22;38661;53.152;5.846;2023-04-22T14:47:48;13.70;87.90
52787;DHT22;38661;53.152;5.846;2023-04-22T14:50:14;13.70;88.10
52787;DHT22;38661;53.152;5.846;2023-04-22T14:52:40;13.50;87.80
52787;DHT22;38661;53.152;5.846;2023-04-22T14:55:06;13.50;87.80
52787;DHT22;38661;53.152;5.846;2023-04-22T14:57:31;13.40;88.00
52787;DHT22;38661;53.152;5.846;2023-04-22T14:59:57;13.40;87.40
52787;DHT22;38661;53.152;5.846;2023-04-22T15:02:23;13.30;87.50
52787;DHT22;38661;53.152;5.846;2023-04-22T15:04:49;13.10;87.90
52787;DHT22;38661;53.152;5.846;2023-04-22T15:07:14;13.00;88.50
52787;DHT22;38661;53.152;5.846;2023-04-22T15:09:40;12.90;88.50
52787;DHT22;38661;53.152;5.846;2023-04-22T15:12:06;12.70;88.80
52787;DHT22;38661;53.152;5.846;2023-04-22T15:14:32;12.70;89.00
52787;DHT22;38661;53.152;5.846;2023-04-22T15:17:03;12.70;89.10
52787;DHT22;38661;53.152;5.846;2023-04-22T15:19:30;12.60;89.10
52787;DHT22;38661;53.152;5.846;2023-04-22T15:21:55;12.60;89.20
52787;DHT22;38661;53.152;5.846;2023-04-22T15:24:21;12.60;89.20
52787;DHT22;38661;53.152;5.846;2023-04-22T15:26:51;12.70;89.20
52787;DHT22;38661;53.152;5.846;2023-04-22T15:29:17;12.60;89.20
52787;DHT22;38661;53.152;5.846;2023-04-22T15:31:44;12.70;89.20
52787;DHT22;38661;53.152;5.846;2023-04-22T15:34:13;12.70;89.20
52787;DHT22;38661;53.152;5.846;2023-04-22T15:36:39;12.70;89.30
52787;DHT22;38661;53.152;5.846;2023-04-22T15:39:05;12.70;89.20
52787;DHT22;38661;53.152;5.846;2023-04-22T15:41:31;12.70;89.20
52787;DHT22;38661;53.152;5.846;2023-04-22T15:44:00;12.80;89.30
52787;DHT22;38661;53.152;5.846;2023-04-22T15:46:27;12.90;89.40
52787;DHT22;38661;53.152;5.846;2023-04-22T15:49:03;12.90;89.30
52787;DHT22;38661;53.152;5.846;2023-04-22T15:51:29;12.80;89.20